createdAt,value
2019-03-05T00:01:59.174Z,97400.16
2019-03-05T00:04:29.652Z,97399.64
2019-03-05T00:06:59.862Z,97401.02
2019-03-05T00:09:30.178Z,97401.02
2019-03-05T00:12:00.566Z,97403.13
2019-03-05T00:14:31.273Z,97402.35
2019-03-05T00:17:01.800Z,97396.72
2019-03-05T00:19:32.021Z,97395.38
2019-03-05T00:22:03.208Z,97393.23
2019-03-05T00:25:08.464Z,97394.00
2019-03-05T00:28:20.731Z,97398.58
2019-03-05T00:30:58.374Z,97390.55
2019-03-05T00:33:55.964Z,97398.02
2019-03-05T00:37:00.132Z,97393.77
2019-03-05T00:40:05.265Z,97396.97
2019-03-05T00:43:01.538Z,97413.86
2019-03-05T00:46:08.848Z,97410.66
2019-03-05T00:49:07.846Z,97416.53
2019-03-05T00:52:20.707Z,97420.27
2019-03-05T00:55:29.097Z,97426.45
2019-03-05T00:58:32.643Z,97431.55
2019-03-05T01:01:43.574Z,97430.73
2019-03-05T01:04:46.027Z,97435.02
2019-03-05T01:07:16.544Z,97446.23
2019-03-05T01:09:46.712Z,97440.37
2019-03-05T01:12:17.132Z,97438.48
2019-03-05T01:14:47.862Z,97437.11
2019-03-05T01:17:18.212Z,97431.73
2019-03-05T01:19:48.398Z,97426.66
2019-03-05T01:28:26.412Z,97430.11
2019-03-05T01:31:05.754Z,97433.88
2019-03-05T01:33:44.159Z,97445.66
2019-03-05T01:36:17.984Z,97444.61
2019-03-05T01:39:07.254Z,97440.06
2019-03-05T01:41:37.479Z,97434.44
2019-03-05T01:44:08.117Z,97439.50
2019-03-05T01:46:38.451Z,97436.55
2019-03-05T01:49:08.768Z,97436.79
2019-03-05T01:51:39.132Z,97434.92
2019-03-05T01:54:09.305Z,97439.18
2019-03-05T01:56:39.425Z,97431.69
2019-03-05T01:59:09.698Z,97443.99
2019-03-05T02:01:39.932Z,97439.70
2019-03-05T02:04:10.312Z,97448.23
2019-03-05T02:06:40.974Z,97445.28
2019-03-05T02:09:11.634Z,97443.38
2019-03-05T02:11:41.847Z,97438.88
2019-03-05T02:14:12.183Z,97431.95
2019-03-05T02:16:42.704Z,97423.66
2019-03-05T02:19:38.377Z,97426.89
2019-03-05T02:22:30.588Z,97423.42
2019-03-05T02:25:07.127Z,97421.03
2019-03-05T02:28:01.980Z,97427.19
2019-03-05T02:31:22.459Z,97419.45
2019-03-05T02:34:07.653Z,97407.42
2019-03-05T02:37:21.649Z,97403.94
2019-03-05T02:40:38.888Z,97420.83
2019-03-05T02:43:34.998Z,97423.50
2019-03-05T02:47:01.592Z,97417.63
2019-03-05T02:49:59.292Z,97422.72
2019-03-05T02:53:03.502Z,97420.31
2019-03-05T02:55:52.249Z,97423.02
2019-03-05T02:58:21.901Z,97419.01
2019-03-05T03:01:16.955Z,97410.44
2019-03-05T03:03:50.490Z,97416.84
2019-03-05T03:06:27.141Z,97406.15
2019-03-05T03:09:34.561Z,97408.55
2019-03-05T03:12:04.674Z,97408.80
2019-03-05T03:14:34.975Z,97406.64
2019-03-05T03:17:05.222Z,97407.95
2019-03-05T03:19:35.541Z,97399.64
2019-03-05T03:22:05.646Z,97415.96
2019-03-05T03:24:35.902Z,97423.42
2019-03-05T03:27:06.212Z,97423.70
2019-03-05T03:29:36.456Z,97434.40
2019-03-05T03:32:07.134Z,97423.42
2019-03-05T03:34:37.470Z,97435.73
2019-03-05T03:37:07.694Z,97433.63
2019-03-05T03:39:37.904Z,97430.39
2019-03-05T03:42:09.939Z,97434.13
2019-03-05T03:44:40.290Z,97438.69
2019-03-05T03:47:10.698Z,97426.38
2019-03-05T03:49:41.159Z,97427.71
2019-03-05T03:52:11.790Z,97421.84
2019-03-05T03:54:42.062Z,97424.27
2019-03-05T03:57:12.310Z,97425.08
2019-03-05T03:59:42.677Z,97421.63
2019-03-05T04:02:12.887Z,97420.30
2019-03-05T04:04:43.244Z,97414.98
2019-03-05T04:07:13.945Z,97424.33
2019-03-05T04:09:44.175Z,97412.03
2019-03-05T04:12:15.421Z,97409.61
2019-03-05T04:14:45.677Z,97411.75
2019-03-05T04:17:15.804Z,97406.16
2019-03-05T04:19:46.137Z,97421.66
2019-03-05T04:22:16.284Z,97422.99
2019-03-05T04:24:46.633Z,97420.84
2019-03-05T04:27:16.835Z,97411.25
2019-03-05T04:29:47.144Z,97404.28
2019-03-05T04:32:17.700Z,97412.86
2019-03-05T04:34:47.983Z,97417.11
2019-03-05T04:37:18.360Z,97416.87
2019-03-05T04:39:48.659Z,97419.25
2019-03-05T04:42:18.914Z,97420.86
2019-03-05T04:44:57.982Z,97426.23
2019-03-05T04:47:28.418Z,97427.27
2019-03-05T04:50:09.413Z,97429.96
2019-03-05T04:52:39.866Z,97422.20
2019-03-05T04:55:11.161Z,97420.34
2019-03-05T04:57:41.340Z,97421.95
2019-03-05T05:00:14.396Z,97416.06
2019-03-05T05:02:44.661Z,97410.72
2019-03-05T05:05:14.890Z,97408.05
2019-03-05T05:07:45.172Z,97421.66
2019-03-05T05:10:15.260Z,97425.13
2019-03-05T05:12:45.643Z,97427.26
2019-03-05T05:15:30.309Z,97423.77
2019-03-05T05:18:00.562Z,97427.23
2019-03-05T05:20:30.860Z,97426.69
2019-03-05T05:23:01.136Z,97426.67
2019-03-05T05:25:31.643Z,97428.00
2019-03-05T05:28:02.050Z,97430.69
2019-03-05T05:30:41.126Z,97428.05
2019-03-05T05:33:11.559Z,97430.73
2019-03-05T05:35:41.790Z,97436.09
2019-03-05T05:38:11.964Z,97428.06
2019-03-05T05:40:43.806Z,97428.86
2019-03-05T05:43:16.848Z,97432.09
2019-03-05T05:45:50.117Z,97429.68
2019-03-05T05:48:20.557Z,97427.26
2019-03-05T05:50:50.708Z,97437.16
2019-03-05T05:53:21.057Z,97438.77
2019-03-05T05:55:51.233Z,97439.55
2019-03-05T05:58:21.370Z,97436.09
2019-03-05T06:00:53.949Z,97441.43
2019-03-05T06:03:24.309Z,97429.69
2019-03-05T06:05:54.628Z,97428.61
2019-03-05T06:08:24.930Z,97437.16
2019-03-05T06:10:55.250Z,97434.20
2019-03-05T06:13:25.434Z,97438.50
2019-03-05T06:15:55.801Z,97440.61
2019-03-05T06:18:26.181Z,97451.27
2019-03-05T06:20:56.680Z,97447.29
2019-03-05T06:23:26.941Z,97441.14
2019-03-05T06:25:57.095Z,97444.34
2019-03-05T06:28:27.419Z,97428.59
2019-03-05T06:30:57.907Z,97429.41
2019-03-05T06:33:28.495Z,97425.13
2019-03-05T06:35:58.805Z,97436.64
2019-03-05T06:38:29.463Z,97421.41
2019-03-05T06:41:00.227Z,97432.36
2019-03-05T06:43:30.878Z,97429.95
2019-03-05T06:46:01.125Z,97440.34
2019-03-05T06:48:32.018Z,97432.85
2019-03-05T06:51:02.359Z,97434.97
2019-03-05T06:53:32.605Z,97428.00
2019-03-05T06:56:02.926Z,97437.06
2019-03-05T06:58:33.249Z,97438.89
2019-03-05T07:01:03.660Z,97438.28
2019-03-05T07:03:34.030Z,97437.88
2019-03-05T07:06:40.218Z,97439.33
2019-03-05T07:09:25.085Z,97448.07
2019-03-05T07:12:28.130Z,97447.22
2019-03-05T07:15:47.919Z,97463.82
2019-03-05T07:18:31.293Z,97460.58
2019-03-05T07:22:01.116Z,97474.95
2019-03-05T07:24:45.699Z,97474.41
2019-03-05T07:27:18.895Z,97475.41
2019-03-05T07:29:49.406Z,97482.84
2019-03-05T07:32:20.070Z,97484.19
2019-03-05T07:34:51.082Z,97487.58
2019-03-05T07:37:21.841Z,97490.73
2019-03-05T07:39:52.973Z,97487.10
2019-03-05T07:42:23.619Z,97488.63
2019-03-05T07:44:54.282Z,97485.94
2019-03-05T07:47:24.670Z,97479.10
2019-03-05T07:49:55.367Z,97472.99
2019-03-05T07:52:26.016Z,97493.75
2019-03-05T07:54:56.252Z,97490.60
2019-03-05T07:57:26.946Z,97489.45
2019-03-05T07:59:57.749Z,97493.89
2019-03-05T08:02:28.421Z,97484.70
2019-03-05T08:04:58.980Z,97489.23
2019-03-05T08:07:29.362Z,97500.70
2019-03-05T08:10:05.417Z,97497.11
2019-03-05T08:13:02.722Z,97493.37
2019-03-05T08:16:02.391Z,97493.05
2019-03-05T08:18:29.276Z,97498.17
2019-03-05T08:20:59.539Z,97496.45
2019-03-05T08:23:31.673Z,97488.56
2019-03-05T08:26:01.973Z,97493.00
2019-03-05T08:28:32.330Z,97507.39
2019-03-05T08:31:02.988Z,97512.06
2019-03-05T08:33:33.486Z,97513.81
2019-03-05T08:36:05.546Z,97517.36
2019-03-05T08:38:36.071Z,97514.90
2019-03-05T08:41:06.918Z,97531.17
2019-03-05T08:43:37.396Z,97529.67
2019-03-05T08:46:08.213Z,97541.86
2019-03-05T08:48:38.621Z,97536.02
2019-03-05T08:51:09.043Z,97546.53
2019-03-05T08:53:49.220Z,97539.39
2019-03-05T08:56:11.884Z,97538.41
2019-03-05T08:58:42.374Z,97533.45
2019-03-05T09:01:12.851Z,97546.41
2019-03-05T09:03:43.570Z,97544.72
2019-03-05T09:06:13.982Z,97543.36
2019-03-05T09:08:45.559Z,97538.20
2019-03-05T09:11:16.213Z,97549.44
2019-03-05T09:13:47.080Z,97551.75
2019-03-05T09:16:18.615Z,97542.26
2019-03-05T09:18:49.364Z,97552.20
2019-03-05T09:21:19.987Z,97553.34
2019-03-05T09:23:50.781Z,97546.35
2019-03-05T09:26:21.174Z,97563.72
2019-03-05T09:28:52.713Z,97553.05
2019-03-05T09:31:23.587Z,97546.09
2019-03-05T09:33:54.123Z,97556.05
2019-03-05T09:36:24.780Z,97538.55
2019-03-05T09:38:55.268Z,97538.15
2019-03-05T09:41:26.017Z,97545.03
2019-03-05T09:43:56.613Z,97540.28
2019-03-05T09:46:27.214Z,97551.99
2019-03-05T09:48:58.546Z,97542.94
2019-03-05T09:51:29.069Z,97547.48
2019-03-05T09:53:59.426Z,97542.09
2019-03-05T09:56:30.158Z,97527.02
2019-03-05T09:59:00.690Z,97529.00
2019-03-05T10:01:30.997Z,97537.81
2019-03-05T10:04:01.277Z,97527.91
2019-03-05T10:06:31.967Z,97520.55
2019-03-05T10:09:02.408Z,97520.55
2019-03-05T10:11:34.393Z,97511.39
2019-03-05T10:14:04.826Z,97527.17
2019-03-05T10:16:35.206Z,97522.54
2019-03-05T10:19:06.007Z,97524.59
2019-03-05T10:21:45.790Z,97525.75
2019-03-05T10:24:10.784Z,97527.63
2019-03-05T10:26:40.896Z,97517.30
2019-03-05T10:29:11.375Z,97508.30
2019-03-05T10:31:42.047Z,97513.88
2019-03-05T10:34:12.486Z,97514.50
2019-03-05T10:36:42.803Z,97507.09
2019-03-05T10:39:30.842Z,97508.84
2019-03-05T10:41:59.538Z,97508.27
2019-03-05T10:44:29.865Z,97507.03
2019-03-05T10:47:00.508Z,97510.97
2019-03-05T10:49:30.869Z,97517.20
2019-03-05T10:52:01.292Z,97501.78
2019-03-05T10:54:31.811Z,97502.88
2019-03-05T10:57:02.424Z,97498.52
2019-03-05T10:59:32.781Z,97504.34
2019-03-05T11:02:03.179Z,97498.07
2019-03-05T11:04:33.695Z,97490.69
2019-03-05T11:07:04.251Z,97490.27
2019-03-05T11:09:34.521Z,97496.13
2019-03-05T11:12:05.837Z,97505.88
2019-03-05T11:14:36.211Z,97465.67
2019-03-05T11:17:06.905Z,97480.80
2019-03-05T11:19:37.295Z,97486.52
2019-03-05T11:22:07.676Z,97487.71
2019-03-05T11:24:38.338Z,97490.89
2019-03-05T11:27:08.716Z,97479.23
2019-03-05T11:29:39.217Z,97481.15
2019-03-05T11:32:10.091Z,97484.35
2019-03-05T11:34:40.547Z,97467.18
2019-03-05T11:37:10.854Z,97467.18
2019-03-05T11:39:41.806Z,97478.72
2019-03-05T11:42:11.942Z,97478.54
2019-03-05T11:44:42.373Z,97472.92
2019-03-05T11:47:13.128Z,97475.11
2019-03-05T11:49:43.470Z,97476.05
2019-03-05T11:52:13.688Z,97474.04
2019-03-05T11:54:43.941Z,97479.69
2019-03-05T11:57:14.283Z,97480.94
2019-03-05T11:59:44.811Z,97490.78
2019-03-05T12:02:21.704Z,97475.38
2019-03-05T12:04:47.658Z,97486.66
2019-03-05T12:07:18.036Z,97473.42
2019-03-05T12:09:48.311Z,97475.12
2019-03-05T12:12:18.434Z,97482.47
2019-03-05T12:14:49.024Z,97469.28
2019-03-05T12:17:19.501Z,97479.45
2019-03-05T12:19:50.013Z,97476.88
2019-03-05T12:22:20.221Z,97478.44
2019-03-05T12:24:51.726Z,97477.52
2019-03-05T12:27:22.233Z,97473.06
2019-03-05T12:29:52.754Z,97462.03
2019-03-05T12:32:22.961Z,97473.77
2019-03-05T12:34:53.506Z,97455.14
2019-03-05T12:37:24.086Z,97452.93
2019-03-05T12:39:54.382Z,97464.92
2019-03-05T12:42:25.132Z,97461.17
2019-03-05T12:44:55.567Z,97451.52
2019-03-05T12:47:26.077Z,97456.48
2019-03-05T12:49:56.466Z,97459.18
2019-03-05T12:52:27.026Z,97459.83
2019-03-05T12:54:57.417Z,97454.73
2019-03-05T12:57:27.771Z,97457.30
2019-03-05T12:59:58.443Z,97460.67
2019-03-05T13:02:28.847Z,97452.17
2019-03-05T13:04:59.210Z,97457.83
2019-03-05T13:07:29.693Z,97466.47
2019-03-05T13:10:02.441Z,97459.78
2019-03-05T13:12:35.934Z,97461.83
2019-03-05T13:15:08.666Z,97452.68
2019-03-05T13:17:39.163Z,97462.61
2019-03-05T13:20:12.052Z,97463.66
2019-03-05T13:22:42.674Z,97466.27
2019-03-05T13:25:14.306Z,97467.48
2019-03-05T13:27:44.615Z,97473.01
2019-03-05T13:30:17.493Z,97467.67
2019-03-05T13:32:47.892Z,97481.88
2019-03-05T13:35:18.650Z,97488.16
2019-03-05T13:37:50.872Z,97494.11
2019-03-05T13:40:23.167Z,97486.69
2019-03-05T13:42:53.866Z,97492.48
2019-03-05T13:45:27.896Z,97497.36
2019-03-05T13:48:14.706Z,97494.03
2019-03-05T13:51:11.040Z,97495.82
2019-03-05T13:54:09.533Z,97494.99
2019-03-05T13:57:19.477Z,97489.88
2019-03-05T13:59:50.664Z,97505.22
2019-03-05T14:02:29.590Z,97503.31
2019-03-05T14:05:14.621Z,97495.53
2019-03-05T14:08:38.334Z,97491.00
2019-03-05T14:11:08.521Z,97503.80
2019-03-05T14:13:38.969Z,97512.95
2019-03-05T14:16:11.345Z,97505.89
2019-03-05T14:18:42.157Z,97500.80
2019-03-05T14:21:12.723Z,97506.19
2019-03-05T14:23:43.318Z,97498.57
2019-03-05T14:26:13.673Z,97513.86
2019-03-05T14:28:44.167Z,97508.63
2019-03-05T14:31:15.058Z,97509.26
2019-03-05T14:33:45.519Z,97527.55
2019-03-05T14:36:15.971Z,97524.91
2019-03-05T14:38:46.630Z,97519.21
2019-03-05T14:41:17.074Z,97521.46
2019-03-05T14:43:47.314Z,97523.02
2019-03-05T14:46:18.298Z,97526.13
2019-03-05T14:48:49.459Z,97526.92
2019-03-05T14:51:21.165Z,97531.11
2019-03-05T14:53:51.799Z,97532.48
2019-03-05T14:56:22.682Z,97540.35
2019-03-05T14:58:55.088Z,97554.31
2019-03-05T15:01:25.599Z,97552.88
2019-03-05T15:03:56.233Z,97555.47
2019-03-05T15:06:26.855Z,97563.13
2019-03-05T15:08:57.528Z,97558.41
2019-03-05T15:11:28.217Z,97568.16
2019-03-05T15:13:58.843Z,97563.16
2019-03-05T15:16:29.601Z,97566.61
2019-03-05T15:19:00.222Z,97569.14
2019-03-05T15:21:38.752Z,97574.27
2019-03-05T15:24:09.439Z,97577.64
2019-03-05T15:26:40.220Z,97570.63
2019-03-05T15:29:11.148Z,97578.11
2019-03-05T15:31:41.983Z,97574.70
2019-03-05T15:34:12.749Z,97577.94
2019-03-05T15:36:43.426Z,97584.00
2019-03-05T15:39:13.907Z,97587.29
2019-03-05T15:41:45.865Z,97588.27
2019-03-05T15:44:17.337Z,97592.64
2019-03-05T15:46:47.728Z,97598.33
2019-03-05T15:49:19.327Z,97595.88
2019-03-05T15:51:49.635Z,97602.44
2019-03-05T15:54:19.959Z,97609.20
2019-03-05T15:56:50.418Z,97610.61
2019-03-05T15:59:20.661Z,97621.95
2019-03-05T16:01:51.392Z,97632.52
2019-03-05T16:04:21.702Z,97632.48
2019-03-05T16:06:52.168Z,97636.38
2019-03-05T16:09:22.744Z,97638.12
2019-03-05T16:11:53.464Z,97647.20
2019-03-05T16:14:24.055Z,97645.73
2019-03-05T16:16:54.617Z,97656.14
2019-03-05T16:19:25.137Z,97660.16
2019-03-05T16:21:56.102Z,97674.22
2019-03-05T16:24:26.433Z,97680.80
2019-03-05T16:26:57.883Z,97678.25
2019-03-05T16:29:29.480Z,97682.36
2019-03-05T16:32:06.964Z,97690.05
2019-03-05T16:34:59.549Z,97691.33
2019-03-05T16:37:45.633Z,97697.84
2019-03-05T16:40:29.305Z,97699.28
2019-03-05T16:43:15.658Z,97701.66
2019-03-05T16:45:55.927Z,97703.50
2019-03-05T16:48:41.606Z,97704.16
2019-03-05T16:51:19.990Z,97702.65
2019-03-05T16:54:08.157Z,97702.33
2019-03-05T16:56:47.774Z,97707.59
2019-03-05T16:59:43.473Z,97715.98
2019-03-05T17:02:30.268Z,97719.86
2019-03-05T17:05:22.222Z,97716.28
2019-03-05T17:08:17.389Z,97725.48
2019-03-05T17:11:05.649Z,97719.39
2019-03-05T17:13:36.296Z,97729.05
2019-03-05T17:16:06.706Z,97738.91
2019-03-05T17:18:37.226Z,97740.02
2019-03-05T17:21:07.603Z,97741.91
2019-03-05T17:23:41.719Z,97743.45
2019-03-05T17:26:12.434Z,97755.55
2019-03-05T17:28:42.883Z,97757.47
2019-03-05T17:31:14.634Z,97755.08
2019-03-05T17:33:45.170Z,97760.73
2019-03-05T17:36:15.766Z,97765.90
2019-03-05T17:38:50.163Z,97766.98
2019-03-05T17:41:21.051Z,97769.39
2019-03-05T17:43:51.743Z,97771.59
2019-03-05T17:46:22.109Z,97780.41
2019-03-05T17:48:52.919Z,97790.89
2019-03-05T17:51:23.378Z,97796.73
2019-03-05T17:53:54.073Z,97790.07
2019-03-05T17:56:24.632Z,97803.95
2019-03-05T17:58:55.381Z,97809.32
2019-03-05T18:01:25.977Z,97810.66
2019-03-05T18:03:56.434Z,97818.66
2019-03-05T18:06:27.166Z,97822.44
2019-03-05T18:08:57.612Z,97818.95
2019-03-05T18:11:28.072Z,97824.32
2019-03-05T18:13:58.888Z,97827.53
2019-03-05T18:16:29.639Z,97827.28
2019-03-05T18:19:00.168Z,97822.98
2019-03-05T18:21:31.185Z,97832.11
2019-03-05T18:24:02.156Z,97828.91
2019-03-05T18:26:32.942Z,97827.63
2019-03-05T18:29:03.995Z,97829.49
2019-03-05T18:31:34.494Z,97825.47
2019-03-05T18:34:05.397Z,97835.92
2019-03-05T18:36:35.646Z,97827.63
2019-03-05T18:39:06.781Z,97827.34
2019-03-05T18:41:38.057Z,97833.27
2019-03-05T18:44:08.575Z,97833.77
2019-03-05T18:46:39.473Z,97844.25
2019-03-05T18:49:10.049Z,97842.91
2019-03-05T18:51:40.549Z,97841.56
2019-03-05T18:54:10.862Z,97844.20
2019-03-05T18:56:41.280Z,97854.41
2019-03-05T18:59:13.406Z,97857.63
2019-03-05T19:01:45.965Z,97862.73
2019-03-05T19:04:17.748Z,97867.00
2019-03-05T19:06:48.533Z,97869.44
2019-03-05T19:09:23.809Z,97874.81
2019-03-05T19:11:54.793Z,97875.91
2019-03-05T19:14:25.303Z,97879.11
2019-03-05T19:16:58.104Z,97882.89
2019-03-05T19:19:28.934Z,97886.63
2019-03-05T19:21:59.435Z,97882.86
2019-03-05T19:24:29.840Z,97886.59
2019-03-05T19:27:01.788Z,97882.08
2019-03-05T19:29:33.302Z,97881.55
2019-03-05T19:32:03.898Z,97879.64
2019-03-05T19:34:34.574Z,97880.17
2019-03-05T19:37:06.364Z,97876.40
2019-03-05T19:39:36.884Z,97879.89
2019-03-05T19:42:07.659Z,97884.48
2019-03-05T19:44:38.203Z,97878.05
2019-03-05T19:47:09.679Z,97885.58
2019-03-05T19:49:40.452Z,97883.42
2019-03-05T19:52:11.091Z,97883.70
2019-03-05T19:54:41.721Z,97891.19
2019-03-05T19:57:12.287Z,97885.82
2019-03-05T19:59:43.144Z,97887.41
2019-03-05T20:02:13.571Z,97886.07
2019-03-05T20:04:43.929Z,97888.22
2019-03-05T20:07:14.596Z,97886.34
2019-03-05T20:09:44.997Z,97883.91
2019-03-05T20:12:16.763Z,97884.73
2019-03-05T20:14:47.415Z,97887.69
2019-03-05T20:17:17.784Z,97896.27
2019-03-05T20:19:48.057Z,97888.25
2019-03-05T20:22:18.968Z,97890.13
2019-03-05T20:24:50.084Z,97891.46
2019-03-05T20:27:21.311Z,97894.15
2019-03-05T20:29:54.498Z,97895.73
2019-03-05T20:32:25.842Z,97892.28
2019-03-05T20:34:56.369Z,97883.95
2019-03-05T20:37:26.900Z,97892.53
2019-03-05T20:39:57.382Z,97889.03
2019-03-05T20:42:30.082Z,97883.91
2019-03-05T20:45:01.246Z,97880.73
2019-03-05T20:47:33.543Z,97882.08
2019-03-05T20:50:04.834Z,97873.50
2019-03-05T20:52:39.439Z,97880.73
2019-03-05T20:55:12.281Z,97867.86
2019-03-05T20:57:43.012Z,97878.30
2019-03-05T21:00:26.799Z,97871.59
2019-03-05T21:03:00.264Z,97867.82
2019-03-05T21:05:35.544Z,97871.03
2019-03-05T21:08:09.350Z,97879.64
2019-03-05T21:10:42.429Z,97880.98
2019-03-05T21:13:12.893Z,97879.36
2019-03-05T21:15:43.751Z,97876.69
2019-03-05T21:18:14.222Z,97878.83
2019-03-05T21:20:44.808Z,97883.14
2019-03-05T21:23:15.430Z,97883.39
2019-03-05T21:25:46.300Z,97880.70
2019-03-05T21:28:17.323Z,97885.26
2019-03-05T21:30:47.696Z,97878.55
2019-03-05T21:33:18.293Z,97873.75
2019-03-05T21:35:49.184Z,97868.64
2019-03-05T21:38:19.537Z,97860.34
2019-03-05T21:40:50.107Z,97865.70
2019-03-05T21:43:21.010Z,97865.70
2019-03-05T21:45:51.871Z,97861.97
2019-03-05T21:48:22.080Z,97861.40
2019-03-05T21:50:54.230Z,97854.17
2019-03-05T21:53:24.725Z,97851.77
2019-03-05T21:55:55.589Z,97849.37
2019-03-05T21:58:26.107Z,97850.70
2019-03-05T22:00:56.709Z,97852.30
2019-03-05T22:03:27.095Z,97850.95
2019-03-05T22:05:58.822Z,97862.53
2019-03-05T22:08:29.446Z,97863.34
2019-03-05T22:11:01.515Z,97859.87
2019-03-05T22:13:34.741Z,97861.73
2019-03-05T22:16:07.587Z,97857.19
2019-03-05T22:18:38.128Z,97861.21
2019-03-05T22:21:09.062Z,97864.67
2019-03-05T22:23:39.471Z,97861.73
2019-03-05T22:26:09.947Z,97863.61
2019-03-05T22:28:40.738Z,97853.70
2019-03-05T22:31:12.151Z,97853.95
2019-03-05T22:33:43.650Z,97850.76
2019-03-05T22:36:15.527Z,97842.72
2019-03-05T22:38:45.693Z,97842.45
2019-03-05T22:41:15.995Z,97841.66
2019-03-05T22:43:47.278Z,97842.99
2019-03-05T22:46:18.913Z,97838.98
2019-03-05T22:48:49.157Z,97843.25
2019-03-05T22:51:19.965Z,97834.97
2019-03-05T22:53:50.636Z,97838.97
2019-03-05T22:56:21.014Z,97839.78
2019-03-05T22:58:51.219Z,97850.78
2019-03-05T23:01:35.947Z,97849.97
2019-03-05T23:04:07.094Z,97848.88
2019-03-05T23:06:37.558Z,97843.52
2019-03-05T23:09:14.022Z,97845.67
2019-03-05T23:25:33.258Z,97823.42
2019-03-05T23:28:03.847Z,97819.14
2019-03-05T23:30:34.034Z,97824.23
2019-03-05T23:33:04.372Z,97829.58
2019-03-05T23:35:34.629Z,97830.66
2019-03-05T23:38:05.141Z,97826.63
2019-03-05T23:40:35.514Z,97822.62
2019-03-05T23:43:06.179Z,97830.89
2019-03-05T23:45:36.928Z,97824.75
2019-03-05T23:48:07.376Z,97824.73
2019-03-05T23:50:37.641Z,97826.60
2019-03-05T23:53:07.831Z,97822.56
2019-03-05T23:55:38.098Z,97815.08
2019-03-05T23:58:08.276Z,97816.39
